NCAR-RAP Real-Time Weather Data

Output produced by METARs form (29 May 2017  09:32 UTC)
found at http://weather.rap.ucar.edu/surface/
 
KSYR 290926Z 12005KT 10SM -RA SCT033 BKN055 OVC090 14/13 A2978 RMK AO2 P0002 T01390128
KSYR 290854Z 14010KT 9SM -RA BKN028 OVC035 15/13 A2978 RMK AO2 SLP079 P0003 60011 T01500133 53010
KSYR 290826Z 12007KT 10SM -RA BKN029 OVC035 16/15 A2977 RMK AO2 P0001 T01560150
KSYR 290754Z 09006KT 10SM -RA BKN035 OVC050 16/15 A2976 RMK AO2 SLP073 P0003 T01560150
KSYR 290717Z 09006KT 10SM -RA SCT029 BKN034 OVC050 16/16 A2976 RMK AO2 P0003 T01610156
KSYR 290654Z 08003KT 6SM -RA BR BKN029 BKN034 OVC055 16/16 A2976 RMK AO2 RAB25 SLP071 P0005 T01610156
KSYR 290638Z 12005KT 5SM -RA BR BKN029 OVC075 17/15 A2975 RMK AO2 VIS 2 NW RAB25 P0002 T01670150
KSYR 290554Z 11007KT 10SM FEW032 BKN080 BKN100 BKN200 18/14 A2975 RMK AO2 SLP068 T01830139 10222 20183 56013
KSYR 290454Z 12007KT 10SM SCT070 BKN085 BKN240 19/14 A2976 RMK AO2 SLP071 T01890139 402440089
KSYR 290354Z 11006KT 10SM SCT070 SCT110 SCT200 19/13 A2977 RMK AO2 SLP076 T01890133
KSYR 290254Z 11005KT 10SM FEW060 BKN110 BKN200 19/13 A2979 RMK AO2 SLP082 T01940133 53003
KSYR 290154Z 12006KT 10SM SCT055 BKN100 19/14 A2978 RMK AO2 SLP080 T01890139
KSYR 290054Z 12006KT 10SM SCT060 BKN090 BKN200 21/14 A2978 RMK AO2 SLP079 T02060139
KSYR 282354Z 14007KT 10SM BKN065 BKN095 BKN210 22/14 A2978 RMK AO2 SLP078 T02220139 10244 20222 55000
KSYR 282254Z 12011KT 10SM BKN060 BKN200 23/14 A2977 RMK AO2 SLP076 T02280139
KSYR 282154Z 13010KT 10SM BKN070 BKN200 23/13 A2978 RMK AO2 SLP080 T02330133
KSYR 282054Z 14009KT 10SM SCT055 BKN075 BKN200 24/13 A2978 RMK AO2 SLP080 T02440133 56024
KSYR 281954Z 15008KT 10SM SCT055 BKN080 BKN200 23/14 A2979 RMK AO2 SLP085 T02330139
KSYR 281854Z VRB05KT 10SM SCT050 BKN070 BKN085 BKN200 23/14 A2982 RMK AO2 SLP095 T02330144
KSYR 281754Z 12006KT 10SM FEW040 BKN070 OVC090 23/14 A2985 RMK AO2 SLP104 T02280144 10228 20139 58002
KSYR 281654Z 11006KT 10SM SCT040 OVC070 22/14 A2986 RMK AO2 SLP106 SCT V BKN T02220144
KSYR 281554Z 11010KT 10SM FEW035 SCT065 SCT150 OVC250 22/15 A2985 RMK AO2 SLP104 T02220150
KSYR 281454Z 10008KT 10SM FEW045 SCT070 SCT150 BKN250 19/15 A2986 RMK AO2 SLP106 T01940150 56016
KSYR 281354Z 08005KT 10SM SCT045 BKN065 OVC250 18/14 A2988 RMK AO2 SLP113 T01830139
KSYR 281254Z 08007KT 10SM FEW020 FEW080 OVC250 16/14 A2988 RMK AO2 SLP114 T01610139
KSYR 281154Z 09003KT 10SM FEW020 FEW080 OVC250 14/13 A2990 RMK AO2 SLP123 70008 T01390133 10139 20089 50003
KSYR 281054Z 00000KT 10SM FEW080 SCT200 BKN250 12/12 A2992 RMK AO2 SLP128 T01170117
KSYR 280954Z 08003KT 7SM R28/3500VP6000FT BCFG FEW080 BKN250 09/09 A2991 RMK AO2 SLP125 T00940094
KSYR 280854Z COR 09003KT 8SM R28/5500VP6000FT BCFG FEW080 SCT240 09/09 A2989 RMK AO2 SLP119 T00940094 57001
KSYR 280754Z 00000KT 6SM BR BCFG FEW002 FEW250 10/10 A2991 RMK AO2 SLP124 T01000100
KSYR 280654Z 00000KT 8SM FEW250 11/11 A2989 RMK AO2 SLP118 T01110111
KSYR 280554Z COR 00000KT 5SM R28/3000VP6000FT BR FEW250 11/11 A2990 RMK AO2 SLP121 T01060106 10172 20106 57002
KSYR 280454Z 00000KT 9SM R28/2600VP6000FT FEW250 11/11 A2991 RMK AO2 SLP125 T01110111 402000111
KSYR 280354Z 00000KT 10SM FEW250 13/12 A2990 RMK AO2 SLP121 T01280122
KSYR 280254Z 00000KT 10SM FEW070 SCT250 14/13 A2991 RMK AO2 SLP123 T01390133 50000
KSYR 280154Z 00000KT 10SM BKN070 15/13 A2992 RMK AO2 SLP129 T01500133
KSYR 280054Z 30005KT 10SM FEW030 SCT042 BKN070 17/13 A2992 RMK AO2 SLP128 T01670128
KSYR 272354Z 30005KT 10SM FEW028 SCT040 OVC060 17/13 A2990 RMK AO2 SLP123 60001 T01720128 10200 20172 53009
KSYR 272254Z 25006KT 10SM BKN040 BKN060 17/13 A2989 RMK AO2 RAE2158 SLP118 P0000 T01720128
KSYR 272154Z 26005KT 10SM -RA FEW028 BKN055 18/14 A2988 RMK AO2 RAE12B28 SLP114 P0000 T01780139
KSYR 272054Z 23005KT 10SM -RA FEW025 BKN060 18/14 A2988 RMK AO2 SLP114 P0000 60001 T01780144 55005
KSYR 271954Z 23005KT 10SM -RA SCT023 BKN042 BKN070 18/14 A2987 RMK AO2 RAB06 SLP112 P0001 T01780144
KSYR 271854Z 23007KT 10SM BKN028 BKN070 18/14 A2989 RMK AO2 SLP117 T01780139
KSYR 271801Z 26005KT 10SM SCT018 BKN026 BKN065 19/14 A2989 RMK AO2 T01890144
KSYR 271754Z 25005KT 10SM BKN016 BKN065 18/14 A2989 RMK AO2 SLP118 60007 T01830144 10183 20133 58004
KSYR 271654Z VRB03KT 10SM BKN016 BKN045 17/14 A2990 RMK AO2 SLP120 T01720144
KSYR 271647Z VRB03KT 10SM BKN017 BKN045 17/14 A2990 RMK AO2 T01670139
KSYR 271607Z VRB03KT 10SM BKN010 BKN036 16/14 A2991 RMK AO2 T01610139
KSYR 271554Z 23003KT 10SM OVC009 16/14 A2991 RMK AO2 RAE21 SLP124 P0000 T01560139
KSYR 271501Z VRB03KT 10SM -RA OVC009 14/13 A2990 RMK AO2 P0000 T01440133
KSYR 271454Z 08005KT 10SM -RA OVC007 14/13 A2990 RMK AO2 DZE1358RAB1358 SLP122 PCPN VERY LIGHT P0000 60007 T01390133 53005
KSYR 271445Z 06005KT 10SM -RA OVC007 14/13 A2990 RMK AO2 DZE1358RAB1358 P0000 T01390133
KSYR 271401Z 00000KT 4SM -RA BR OVC010 14/14 A2990 RMK AO2 DZE1358RAB1358 P0000 T01440139
KSYR 271354Z 00000KT 2 1/2SM -DZ BR SCT005 BKN014 OVC027 14/14 A2990 RMK AO2 SLP120 P0003 T01440139
KSYR 271345Z 00000KT 2SM -DZ BR SCT005 BKN014 OVC024 14/14 A2990 RMK AO2 P0003 T01390139
KSYR 271334Z 00000KT 1 3/4SM R28/5500VP6000FT -DZ BR SCT005 BKN014 OVC024 14/14 A2990 RMK AO2 P0002 T01390139
KSYR 271254Z 00000KT 2SM -DZ BR SCT005 BKN014 OVC024 14/13 A2989 RMK AO2 SLP119 P0004 T01390133
KSYR 271215Z 00000KT 2 1/2SM R28/6000VP6000FT -DZ BR SCT005 BKN011 OVC022 13/13 A2989 RMK AO2 P0002 T01330133
KSYR 271158Z 00000KT 1 3/4SM -DZ BR BKN005 BKN018 OVC024 13/13 A2989 RMK AO2 VIS 1 NW P0000 T01330133
KSYR 271154Z 10003KT 2 1/2SM -DZ BR BKN004 OVC013 13/13 A2989 RMK AO2 VIS 1 NW SLP117 P0001 60004 70012 T01330133 10139 20128 51008
KSYR 271133Z 00000KT 3SM -DZ BR BKN004 OVC013 13/13 A2989 RMK AO2 P0001 T01330133
KSYR 271112Z 05003KT 2 1/2SM -DZ BR BKN004 OVC013 13/13 A2989 RMK AO2 P0000 T01280128
KSYR 271054Z 04003KT 4SM -DZ BR BKN005 OVC015 13/13 A2988 RMK AO2 SLP117 P0000 T01280128
KSYR 270954Z 00000KT 5SM -DZ BR BKN005 OVC012 13/13 A2987 RMK AO2 RAE52DZB52 SLP110 P0001 T01330133
KSYR 270934Z 36003KT 4SM -RA BR BKN005 OVC012 13/13 A2987 RMK AO2 VIS 2 1/2 NW P0001 T01280128
KSYR 270854Z 30004KT 10SM -RA FEW005 OVC013 13/13 A2986 RMK AO2 DZE45RAB54 SLP109 P0000 60002 T01330133 51005
KSYR 270754Z 27004KT 6SM -DZ BR SCT005 OVC014 13/13 A2986 RMK AO2 SLP108 P0001 T01330133
KSYR 270654Z 27003KT 3SM -DZ BR FEW005 BKN011 OVC018 13/13 A2985 RMK AO2 VIS 2 1/2 NW RAE47DZB47 SLP105 P0001 T01330133
KSYR 270620Z 26005KT 5SM -RA BR FEW005 BKN013 OVC018 13/13 A2984 RMK AO2 VIS 2 1/2 NW P0001 T01280128
KSYR 270554Z 26005KT 4SM -RA BR FEW005 BKN009 OVC018 13/13 A2985 RMK AO2 SLP103 P0002 60004 T01280128 10139 20128 50001
KSYR 270526Z 27004KT 2 1/2SM -RA BR FEW004 BKN009 OVC015 13/13 A2985 RMK AO2 P0001 T01330133
KSYR 270454Z 26003KT 4SM -RA BR BKN006 OVC017 13/13 A2985 RMK AO2 DZE29RAB29 SLP104 P0002 T01330133 401670117
KSYR 270440Z 27004KT 4SM -RA BR BKN006 OVC017 13/13 A2985 RMK AO2 DZE29RAB29 P0002 T01330133
KSYR 270430Z 27003KT 2 1/2SM -RA BR BKN006 OVC017 13/13 A2985 RMK AO2 DZE29RAB29 P0001 T01330133
KSYR 270358Z 30003KT 5SM -DZ BR BKN007 OVC026 13/13 A2985 RMK AO2 P0000 T01330133
KSYR 270354Z 30003KT 5SM -DZ BR SCT008 BKN017 OVC022 13/13 A2985 RMK AO2 SLP104 P0000 T01330133
KSYR 270327Z 30004KT 10SM -DZ FEW008 BKN019 OVC025 13/13 A2985 RMK AO2 P0000 T01330133
KSYR 270254Z 29003KT 9SM -DZ FEW005 BKN022 OVC027 13/13 A2984 RMK AO2 RAB09E14DZB14 SLP102 P0000 60000 T01330133 51016
KSYR 270246Z 00000KT 8SM -DZ FEW005 BKN022 OVC027 13/13 A2984 RMK AO2 RAB09E14DZB14 P0000 T01330133
KSYR 270222Z 29003KT 6SM -DZ BR SCT011 SCT022 OVC027 13/13 A2984 RMK AO2 RAB09E14DZB14 P0000 T01330133
KSYR 270154Z 30005KT 10SM OVC011 14/13 A2983 RMK AO2 SLP099 T01390128
KSYR 270054Z 30004KT 10SM BKN010 OVC041 14/13 A2981 RMK AO2 SLP092 T01390128
KSYR 270021Z 29005KT 10SM BKN011 OVC043 14/13 A2981 RMK AO2 T01390128
KSYR 262354Z 29007KT 10SM SCT010 BKN043 OVC060 14/13 A2980 RMK AO2 SLP087 60000 T01390128 10167 20139 53014
KSYR 262254Z 29006KT 10SM FEW014 SCT031 OVC045 14/13 A2978 RMK AO2 DZB32E49 SLP081 P0000 T01390128
KSYR 262154Z 31010KT 10SM BKN013 BKN018 OVC044 14/13 A2976 RMK AO2 SLP073 T01440128
KSYR 262152Z 30009KT 10SM BKN014 BKN023 OVC044 14/13 A2976 RMK AO2
KSYR 262107Z 30010KT 10SM BKN017 BKN022 OVC038 14/12 A2974 RMK AO2 T01440122
KSYR 262054Z 31009KT 10SM SCT017 BKN025 OVC036 15/13 A2974 RMK AO2 CIG 020 NW SLP066 T01500128 51021
KSYR 262006Z 29010KT 10SM BKN020 OVC033 16/13 A2972 RMK AO2 T01560128
KSYR 261954Z 30010KT 10SM OVC021 16/12 A2972 RMK AO2 SLP060 T01560122
KSYR 261854Z 30011KT 10SM OVC020 16/12 A2970 RMK AO2 SLP054 T01560122
KSYR 261754Z 30009KT 10SM OVC016 15/13 A2968 RMK AO2 SLP045 60004 T01500128 10161 20128 51019
KSYR 261710Z 30014G17KT 10SM FEW011 BKN017 OVC039 16/13 A2966 RMK AO2 T01610133
KSYR 261654Z 29008G19KT 10SM FEW009 BKN013 OVC038 16/13 A2966 RMK AO2 DZB14E48 SLP039 P0000 T01560133
KSYR 261639Z 30010KT 9SM -DZ SCT010 BKN016 OVC040 15/14 A2965 RMK AO2 DZB14 CIG 009 NW P0000 T01500139
KSYR 261554Z 31010KT 10SM BKN014 OVC021 14/13 A2964 RMK AO2 SLP034 T01440133
KSYR 261510Z 28008KT 10SM SCT008 BKN014 OVC019 15/14 A2963 RMK AO2 T01500139
KSYR 261454Z 28009KT 10SM OVC010 14/13 A2962 RMK AO2 SLP026 60004 T01440133 51006
KSYR 261452Z 28011KT 10SM OVC009 14/13 A2962 RMK AO2
KSYR 261416Z 28008KT 10SM BKN012 OVC022 14/14 A2961 RMK AO2 T01440139
KSYR 261354Z 28008KT 10SM BKN007 OVC015 14/14 A2961 RMK AO2 RAE44 SLP022 P0000 T01440139
KSYR 261254Z 27008KT 8SM -RA BKN005 OVC010 13/13 A2960 RMK AO2 SLP020 P0004 T01330133
KSYR 261227Z 25006KT 3SM R28/6000VP6000FT -RA BR BKN006 OVC011 13/13 A2960 RMK AO2 VIS 2 NW P0003 T01330133
KSYR 261221Z 26006KT 2SM R28/5000VP6000FT -RA BR FEW004 OVC010 13/13 A2960 RMK AO2 P0003 T01280128
KSYR 261204Z 28004KT 1 1/4SM R28/4000V6000FT -RA BR BKN004 OVC010 13/13 A2960 RMK AO2 P0001 T01280128
KSYR 261154Z 32003KT 1SM R28/4000V5000FT -RA BR OVC005 13/13 A2960 RMK AO2 RAE22B47DZB35E47 SLP019 P0004 60012 70051 T01280128 10128 20117 51016
KSYR 261148Z 32003KT 3/4SM R28/4000VP6000FT -RA BR OVC005 13/13 A2960 RMK AO2 RAE22B47DZB35E47 P0002
KSYR 261144Z 32003KT 1 3/4SM R28/4000VP6000FT -DZ BR OVC005 13/13 A2960 RMK AO2 VIS 1 NW RAE22DZB35 P0002 T01280128
KSYR 261133Z 32003KT 10SM BKN005 OVC014 12/12 A2959 RMK AO2 RAE22 P0001 T01220122
KSYR 261119Z 27004KT 4SM R28/6000VP6000FT -RA BR BKN004 BKN014 OVC019 12/12 A2958 RMK AO2 P0001 T01220122 $
KSYR 261109Z 29003KT 2 1/2SM R28/5500VP6000FT -RA BR BKN004 OVC016 12/12 A2958 RMK AO2 VIS 1 SE P0001 T01220122 $
KSYR 261101Z 31003KT 2 1/2SM R28/5500VP6000FT -RA BR SCT006 OVC015 12/12 A2958 RMK AO2 CIG 005 NW P0000 T01220122 $
KSYR 261054Z 30003KT 3SM -RA BR SCT005 BKN015 OVC030 12/12 A2957 RMK AO2 SLP012 VIS 2 NW P0003 T01220122 $
KSYR 261051Z 31003KT 3SM -RA BR SCT005 BKN015 OVC030 12/12 A2958 RMK AO2 P0002 $
KSYR 261026Z 00000KT 2 1/2SM -RA BR FEW005 BKN017 OVC030 12/12 A2957 RMK AO2 P0001 T01220122 $
KSYR 260954Z 00000KT 5SM -RA BR FEW004 BKN018 BKN030 12/12 A2955 RMK AO2 RAB13 SLP004 P0005 T01170117 $
KSYR 260939Z 07003KT 5SM -RA BR BKN018 BKN023 BKN035 12/12 A2954 RMK AO2 RAB13 P0004 T01220122 $
KSYR 260854Z 07004KT 10SM BKN022 BKN035 12/12 A2953 RMK AO2 SLP997 T01220117 53001 $
KSYR 260754Z 06003KT 10SM SCT025 BKN042 BKN060 12/12 A2952 RMK AO2 SLP992 T01220117 $
KSYR 260704Z 06003KT 10SM FEW020 BKN030 BKN065 13/12 A2953 RMK AO2 T01280122 $
KSYR 260654Z 06005KT 10SM FEW019 BKN028 BKN065 13/12 A2953 RMK AO2 SLP997 T01280122 $
KSYR 260554Z 06007KT 10SM FEW019 BKN026 BKN065 BKN200 13/12 A2953 RMK AO2 SLP996 T01280117 10139 20122 58002 $
KSYR 260547Z 05007KT 10SM FEW019 BKN026 BKN039 BKN200 13/12 A2953 RMK AO2 T01280117 $
KSYR 260454Z 05005KT 10SM SCT026 BKN038 OVC060 13/12 A2953 RMK AO2 SLP998 T01330117 401720122 $
KSYR 260354Z 08006KT 10SM SCT027 BKN033 BKN055 OVC200 13/12 A2954 RMK AO2 SLP001 T01330117 $
KSYR 260335Z 08009KT 10SM SCT027 BKN034 BKN050 OVC200 13/12 A2954 RMK AO2 T01330117 $
KSYR 260254Z 07009KT 10SM OVC025 13/13 A2953 RMK AO2 SLP998 T01330128 50002 $
KSYR 260201Z 07007KT 10SM OVC025 13/13 A2954 RMK AO2 T01330128 $
KSYR 260154Z 06007KT 10SM SCT025 OVC039 14/13 A2954 RMK AO2 SLP000 T01390128 $
KSYR 260054Z 08010KT 10SM SCT025 BKN050 14/13 A2953 RMK AO2 SLP995 T01390128 $
KSYR 260001Z 08008KT 10SM SCT025 BKN050 14/13 A2953 RMK AO2 T01390128 $
KSYR 252354Z 07009KT 10SM BKN025 OVC032 14/13 A2953 RMK AO2 SLP995 60011 T01440128 10144 20133 53002 $
KSYR 252254Z 09009KT 5SM BR OVC026 13/13 A2952 RMK AO2 RAE50 SLP993 P0001 T01330128 $
KSYR 252154Z 07005KT 5SM -RA BR OVC023 13/13 A2952 RMK AO2 RAB47 SLP992 P0000 T01330128 $
KSYR 252054Z 06007KT 3SM BR OVC026 14/13 A2952 RMK AO2 RAE54 SLP993 P0002 60010 T01390128 58012 $
KSYR 251954Z 07006KT 10SM -RA BKN027 OVC031 13/13 A2954 RMK AO2 SLP998 P0007 T01330128 $
KSYR 251945Z 08009KT 10SM -RA BKN027 OVC031 13/13 A2954 RMK AO2 P0007 T01330128 $
KSYR 251857Z COR 08013KT 2 1/2SM RA BKN027 OVC035 13/13 A2955 RMK AO2 VIS 2V5 P0001 T01330128 $
KSYR 251854Z 09014KT 4SM -RA BR SCT027 BKN046 OVC060 13/13 A2955 RMK AO2 SLP001 P0001 T01330128 $
KSYR 251754Z COR 08011KT 3SM -RA SCT028 BKN045 OVC055 13/13 A2956 RMK AO2 SLP005 P0005 60028 T01330130 10144 20122 58012 $
KSYR 251701Z 08016G23KT 8SM -RA SCT028 SCT070 OVC095 13/12 A2957 RMK AO2 P0001 T01280117
KSYR 251654Z 08015G23KT 4SM RA BR BKN028 BKN060 OVC090 12/11 A2957 RMK AO2 SLP008 P0013 T01220111
KSYR 251554Z 09016G25KT 7SM -RA BKN029 BKN060 OVC090 13/11 A2959 RMK AO2 SLP017 P0003 T01280111
KSYR 251552Z 09017G25KT 7SM -RA BKN029 BKN060 OVC090 13/11 A2959 RMK AO2 P0002
KSYR 251454Z 08012G20KT 9SM -RA OVC100 12/12 A2960 RMK AO2 SLP020 P0005 60007 T01220117 58016
KSYR 251354Z 08010KT 10SM -RA OVC100 13/11 A2962 RMK AO2 SLP026 P0002 T01280111
KSYR 251254Z 08014G21KT 10SM -RA FEW075 OVC100 14/10 A2963 RMK AO2 RAB44 SLP030 P0000 T01390100
KSYR 251154Z 08012KT 10SM OVC080 14/10 A2965 RMK AO2 RAE10 SLP035 P0000 60000 T01440100 10167 20139 58011
KSYR 251054Z 08009KT 10SM -RA FEW048 BKN085 OVC100 14/11 A2967 RMK AO2 RAE02B28 SLP042 PCPN VERY LIGHT P0000 T01390106
KSYR 250954Z 07008KT 10SM -RA FEW055 BKN095 OVC110 14/11 A2968 RMK AO2 RAE09B30 SLP045 P0000 T01440106
KSYR 250854Z 07008KT 10SM -RA FEW055 SCT075 BKN095 OVC210 14/10 A2968 RMK AO2 RAB16 SLP046 PCPN VERY LIGHT P0000 60000 T01440100 56006
KSYR 250754Z 08005KT 10SM FEW110 SCT130 BKN170 BKN230 15/11 A2968 RMK AO2 SLP047 T01500106
KSYR 250654Z 08008KT 10SM SCT130 OVC240 16/10 A2969 RMK AO2 SLP049 T01560100
KSYR 250554Z 10008KT 10SM SCT130 BKN250 17/09 A2970 RMK AO2 SLP051 T01670094 10211 20167 58010